createdAt,value
2022-11-29T00:00:16.177Z,12.15
2022-11-29T00:04:05.183Z,11.00
2022-11-29T00:07:36.937Z,11.13
2022-11-29T00:11:13.998Z,12.50
2022-11-29T00:14:45.960Z,10.73
2022-11-29T00:18:18.192Z,11.97
2022-11-29T00:21:49.955Z,11.02
2022-11-29T00:25:21.984Z,9.52
2022-11-29T00:28:53.911Z,11.30
2022-11-29T00:32:26.061Z,10.55
2022-11-29T00:36:01.542Z,10.07
2022-11-29T00:39:33.366Z,9.82
2022-11-29T00:43:04.944Z,9.90
2022-11-29T00:46:37.338Z,10.38
2022-11-29T00:50:09.331Z,8.60
2022-11-29T00:53:41.608Z,9.37
2022-11-29T00:57:13.285Z,9.38
2022-11-29T01:00:45.787Z,9.60
2022-11-29T01:04:17.619Z,10.30
2022-11-29T01:07:49.802Z,10.38
2022-11-29T01:11:24.617Z,9.80
2022-11-29T01:14:58.656Z,10.73
2022-11-29T01:18:30.593Z,9.80
2022-11-29T01:22:02.398Z,9.35
2022-11-29T01:25:34.072Z,10.25
2022-11-29T01:29:06.117Z,11.00
2022-11-29T01:32:38.225Z,10.15
2022-11-29T01:36:12.546Z,9.25
2022-11-29T01:39:44.372Z,10.23
2022-11-29T01:43:17.555Z,10.68
2022-11-29T01:46:49.644Z,10.38
2022-11-29T01:50:22.072Z,9.43
2022-11-29T01:53:55.057Z,9.03
2022-11-29T01:57:27.436Z,10.02
2022-11-29T02:01:00.619Z,9.75
2022-11-29T02:04:35.099Z,9.87
2022-11-29T02:08:08.402Z,10.23
2022-11-29T02:12:07.734Z,9.65
2022-11-29T02:15:58.419Z,9.93
2022-11-29T02:20:06.289Z,9.45
2022-11-29T02:24:00.818Z,8.65
2022-11-29T02:28:03.894Z,10.57
2022-11-29T02:32:12.873Z,9.93
2022-11-29T02:36:22.345Z,11.15
2022-11-29T02:40:26.940Z,9.77
2022-11-29T02:44:40.450Z,10.83
2022-11-29T02:48:29.227Z,9.57
2022-11-29T02:52:13.180Z,10.30
2022-11-29T02:55:59.576Z,10.77
2022-11-29T02:59:45.532Z,10.82
2022-11-29T03:03:35.646Z,10.23
2022-11-29T03:07:19.963Z,9.63
2022-11-29T03:11:12.837Z,10.23
2022-11-29T03:15:00.098Z,10.68
2022-11-29T03:18:52.186Z,10.93
2022-11-29T03:22:26.724Z,11.10
2022-11-29T03:26:07.609Z,9.82
2022-11-29T03:29:53.228Z,10.68
2022-11-29T03:33:36.955Z,10.63
2022-11-29T03:37:23.425Z,10.20
2022-11-29T03:41:05.073Z,11.45
2022-11-29T03:44:49.994Z,11.48
2022-11-29T03:48:27.358Z,10.57
2022-11-29T03:52:38.826Z,11.20
2022-11-29T03:56:32.432Z,10.82
2022-11-29T04:00:08.359Z,11.10
2022-11-29T04:04:02.116Z,11.35
2022-11-29T04:07:54.442Z,12.02
2022-11-29T04:11:55.588Z,10.73
2022-11-29T04:16:07.703Z,10.98
2022-11-29T04:20:38.791Z,12.05
2022-11-29T04:24:39.063Z,11.75
2022-11-29T04:28:19.415Z,11.20
2022-11-29T04:32:21.545Z,11.02
2022-11-29T04:36:21.828Z,12.85
2022-11-29T04:40:31.254Z,12.07
2022-11-29T04:44:27.101Z,10.27
2022-11-29T04:48:40.258Z,10.80
2022-11-29T04:52:36.791Z,15.00
2022-11-29T04:56:33.082Z,13.23
2022-11-29T05:00:09.986Z,14.05
2022-11-29T05:04:04.839Z,11.23
2022-11-29T05:07:59.846Z,11.00
2022-11-29T05:11:58.034Z,11.10
2022-11-29T05:15:35.783Z,12.40
2022-11-29T05:19:29.935Z,12.57
2022-11-29T05:23:26.466Z,12.50
2022-11-29T05:27:10.525Z,12.80
2022-11-29T05:31:03.964Z,12.77
2022-11-29T05:35:07.323Z,12.05
2022-11-29T05:39:19.343Z,11.20
2022-11-29T05:43:12.190Z,13.40
2022-11-29T05:47:01.294Z,13.50
2022-11-29T05:50:58.472Z,12.00
2022-11-29T05:54:38.023Z,11.38
2022-11-29T05:58:28.641Z,11.40
2022-11-29T06:02:30.830Z,11.48
2022-11-29T06:06:14.186Z,12.70
2022-11-29T06:09:53.546Z,12.10
2022-11-29T06:13:59.738Z,11.52
2022-11-29T06:17:55.341Z,14.15
2022-11-29T06:21:56.708Z,12.45
2022-11-29T06:25:42.712Z,13.07
2022-11-29T06:29:36.772Z,13.05
2022-11-29T06:33:22.851Z,13.18
2022-11-29T06:37:03.454Z,11.53
2022-11-29T06:40:35.478Z,13.48
2022-11-29T06:44:08.042Z,14.00
2022-11-29T06:47:46.447Z,13.50
2022-11-29T06:51:57.198Z,14.52
2022-11-29T06:55:54.899Z,14.50
2022-11-29T06:59:50.443Z,13.82
2022-11-29T07:03:48.100Z,13.83
2022-11-29T07:07:22.373Z,15.07
2022-11-29T07:10:55.869Z,13.27
2022-11-29T07:14:28.054Z,15.07
2022-11-29T07:18:13.276Z,14.43
2022-11-29T07:22:09.426Z,13.82
2022-11-29T07:25:58.466Z,15.40
2022-11-29T07:29:48.636Z,15.40
2022-11-29T07:33:50.920Z,13.85
2022-11-29T07:38:00.455Z,13.20
2022-11-29T07:42:08.265Z,13.33
2022-11-29T07:45:40.422Z,13.25
2022-11-29T07:49:12.058Z,16.15
2022-11-29T07:52:44.382Z,13.57
2022-11-29T07:56:16.513Z,14.85
2022-11-29T07:59:48.414Z,15.65
2022-11-29T08:03:19.983Z,17.30
2022-11-29T08:06:52.217Z,14.40
2022-11-29T08:10:23.921Z,17.00
2022-11-29T08:14:00.946Z,14.82
2022-11-29T08:17:32.600Z,16.27
2022-11-29T08:21:07.325Z,16.48
2022-11-29T08:24:38.897Z,16.35
2022-11-29T08:28:10.955Z,15.33
2022-11-29T08:31:42.700Z,16.20
2022-11-29T08:35:14.630Z,15.00
2022-11-29T08:38:46.904Z,15.07
2022-11-29T08:42:19.299Z,15.70
2022-11-29T08:45:52.578Z,14.57
2022-11-29T08:49:24.546Z,17.40
2022-11-29T08:53:16.968Z,15.80
2022-11-29T09:00:42.417Z,16.35
2022-11-29T09:04:14.417Z,15.80
2022-11-29T09:07:46.942Z,16.55
2022-11-29T09:11:22.408Z,17.95
2022-11-29T09:14:53.998Z,17.40
2022-11-29T09:18:28.675Z,17.63
2022-11-29T09:22:00.245Z,16.13
2022-11-29T09:25:32.501Z,16.77
2022-11-29T09:29:05.853Z,19.10
2022-11-29T09:32:37.915Z,17.30
2022-11-29T09:36:10.963Z,18.27
2022-11-29T09:39:42.873Z,17.43
2022-11-29T09:43:32.111Z,17.23
2022-11-29T09:47:15.981Z,17.50
2022-11-29T09:51:31.043Z,17.60
2022-11-29T09:55:21.072Z,17.92
2022-11-29T09:59:23.029Z,18.33
2022-11-29T10:03:16.654Z,18.05
2022-11-29T10:07:11.081Z,17.83
2022-11-29T10:10:46.984Z,16.98
2022-11-29T10:14:24.313Z,17.02
2022-11-29T10:18:02.322Z,18.00
2022-11-29T10:21:37.761Z,17.05
2022-11-29T10:25:19.222Z,17.15
2022-11-29T10:28:51.422Z,17.17
2022-11-29T10:32:25.529Z,16.42
2022-11-29T10:36:04.809Z,19.35
2022-11-29T10:40:04.223Z,18.25
2022-11-29T10:43:37.480Z,16.63
2022-11-29T10:47:11.189Z,17.30
2022-11-29T10:50:45.593Z,18.23
2022-11-29T10:54:38.595Z,18.07
2022-11-29T10:58:14.681Z,16.98
2022-11-29T11:01:47.006Z,16.38
2022-11-29T11:05:26.533Z,18.13
2022-11-29T11:09:18.691Z,17.40
2022-11-29T11:13:06.890Z,17.02
2022-11-29T11:16:39.010Z,16.63
2022-11-29T11:20:30.995Z,17.80
2022-11-29T11:24:03.270Z,16.67
2022-11-29T11:27:40.113Z,18.02
2022-11-29T11:31:13.450Z,19.67
2022-11-29T11:34:56.132Z,19.55
2022-11-29T11:38:28.614Z,17.33
2022-11-29T11:42:21.117Z,19.43
2022-11-29T11:45:54.520Z,16.27
2022-11-29T11:49:35.385Z,17.55
2022-11-29T11:53:20.167Z,18.02
2022-11-29T11:56:53.700Z,18.07
2022-11-29T12:01:02.505Z,17.92
2022-11-29T12:04:36.134Z,18.27
2022-11-29T12:08:13.092Z,18.17
2022-11-29T12:12:02.045Z,18.33
2022-11-29T12:15:39.769Z,17.75
2022-11-29T12:19:23.465Z,17.63
2022-11-29T12:23:11.451Z,16.33
2022-11-29T12:26:59.517Z,18.13
2022-11-29T12:30:33.701Z,16.55
2022-11-29T12:34:23.502Z,17.37
2022-11-29T12:38:12.453Z,18.58
2022-11-29T12:41:54.301Z,18.77
2022-11-29T12:45:32.405Z,16.43
2022-11-29T12:49:08.109Z,18.80
2022-11-29T12:53:05.019Z,18.45
2022-11-29T12:57:01.869Z,17.83
2022-11-29T13:00:44.549Z,18.08
2022-11-29T13:04:49.246Z,17.55
2022-11-29T13:08:42.240Z,19.20
2022-11-29T13:12:35.740Z,16.90
2022-11-29T13:16:38.221Z,19.13
2022-11-29T13:20:43.748Z,17.23
2022-11-29T13:24:42.722Z,17.30
2022-11-29T13:28:22.229Z,18.27
2022-11-29T13:31:54.309Z,17.92
2022-11-29T13:35:43.902Z,18.13
2022-11-29T13:39:58.147Z,18.00
2022-11-29T13:43:35.243Z,17.33
2022-11-29T13:47:12.605Z,17.77
2022-11-29T13:50:45.591Z,17.03
2022-11-29T13:54:30.798Z,20.08
2022-11-29T13:58:28.606Z,19.13
2022-11-29T14:02:00.754Z,18.77
2022-11-29T14:05:39.805Z,20.13
2022-11-29T14:09:22.786Z,17.25
2022-11-29T14:12:56.833Z,20.80
2022-11-29T14:16:36.640Z,18.65
2022-11-29T14:20:43.955Z,18.83
2022-11-29T14:24:37.142Z,17.17
2022-11-29T14:28:15.046Z,18.37
2022-11-29T14:31:49.366Z,17.20
2022-11-29T14:35:33.492Z,18.58
2022-11-29T14:39:14.123Z,18.13
2022-11-29T14:42:48.478Z,17.40
2022-11-29T14:46:29.854Z,16.98
2022-11-29T14:50:06.830Z,16.97
2022-11-29T14:53:40.920Z,15.90
2022-11-29T14:57:49.670Z,18.13
2022-11-29T15:01:21.638Z,18.52
2022-11-29T15:04:56.997Z,18.97
2022-11-29T15:08:40.951Z,19.75
2022-11-29T15:12:21.758Z,19.77
2022-11-29T15:16:21.306Z,18.57
2022-11-29T15:20:05.800Z,17.55
2022-11-29T15:23:42.560Z,17.25
2022-11-29T15:27:14.353Z,19.50
2022-11-29T15:30:48.171Z,17.30
2022-11-29T15:34:26.093Z,19.10
2022-11-29T15:37:58.056Z,17.77
2022-11-29T15:41:34.020Z,18.27
2022-11-29T15:45:25.529Z,19.20
2022-11-29T15:49:21.582Z,19.67
2022-11-29T15:52:59.519Z,19.43
2022-11-29T15:56:39.372Z,20.45
2022-11-29T16:00:20.105Z,15.85
2022-11-29T16:03:55.170Z,17.07
2022-11-29T16:07:32.547Z,17.45
2022-11-29T16:11:05.890Z,18.42
2022-11-29T16:14:48.913Z,18.95
2022-11-29T16:18:26.167Z,18.37
2022-11-29T16:22:14.272Z,19.23
2022-11-29T16:26:05.497Z,17.83
2022-11-29T16:29:43.049Z,19.13
2022-11-29T16:33:24.004Z,18.48
2022-11-29T16:37:01.486Z,17.80
2022-11-29T16:40:35.353Z,17.23
2022-11-29T16:44:39.231Z,17.60
2022-11-29T16:48:22.890Z,19.25
2022-11-29T16:51:56.002Z,18.55
2022-11-29T16:55:27.699Z,19.83
2022-11-29T16:59:24.688Z,18.23
2022-11-29T17:02:54.624Z,19.25
2022-11-29T17:06:28.054Z,18.73
2022-11-29T17:09:59.967Z,19.08
2022-11-29T17:13:31.901Z,19.80
2022-11-29T17:17:04.063Z,18.77
2022-11-29T17:20:35.997Z,20.40
2022-11-29T17:24:11.879Z,19.00
2022-11-29T17:27:43.905Z,17.98
2022-11-29T17:31:18.998Z,19.93
2022-11-29T17:34:51.177Z,20.35
2022-11-29T17:38:22.692Z,18.83
2022-11-29T17:41:54.663Z,19.10
2022-11-29T17:45:27.238Z,19.65
2022-11-29T17:49:00.957Z,17.38
2022-11-29T17:52:32.785Z,18.67
2022-11-29T17:56:10.033Z,20.20
2022-11-29T17:59:41.562Z,19.70
2022-11-29T18:03:13.781Z,19.80
2022-11-29T18:06:49.654Z,18.27
2022-11-29T18:10:22.164Z,19.63
2022-11-29T18:13:56.414Z,19.00
2022-11-29T18:17:28.360Z,18.47
2022-11-29T18:21:01.002Z,19.15
2022-11-29T18:24:32.899Z,19.77
2022-11-29T18:28:04.700Z,18.60
2022-11-29T18:31:38.473Z,19.15
2022-11-29T18:35:11.984Z,18.40
2022-11-29T18:38:45.648Z,19.63
2022-11-29T18:42:17.346Z,18.50
2022-11-29T18:45:49.349Z,17.95
2022-11-29T18:49:21.553Z,19.90
2022-11-29T18:52:55.620Z,20.03
2022-11-29T18:56:29.959Z,19.27
2022-11-29T19:00:02.973Z,19.05
2022-11-29T19:03:37.049Z,21.77
2022-11-29T19:07:08.930Z,22.77
2022-11-29T19:10:40.502Z,19.85
2022-11-29T19:14:13.465Z,20.83
2022-11-29T19:17:45.592Z,21.00
2022-11-29T19:21:18.787Z,19.75
2022-11-29T19:24:50.512Z,20.48
2022-11-29T19:28:22.905Z,21.40
2022-11-29T19:31:54.733Z,18.98
2022-11-29T19:35:26.630Z,20.58
2022-11-29T19:39:00.908Z,21.33
2022-11-29T19:42:32.791Z,19.67
2022-11-29T19:46:12.559Z,18.88
2022-11-29T19:49:46.735Z,19.85
2022-11-29T19:53:18.593Z,20.00
2022-11-29T19:56:50.547Z,21.33
2022-11-29T20:00:22.516Z,19.60
2022-11-29T20:03:58.409Z,20.00
2022-11-29T20:07:30.209Z,19.10
2022-11-29T20:11:28.710Z,22.00
2022-11-29T20:15:01.144Z,20.03
2022-11-29T20:18:33.837Z,20.55
2022-11-29T20:22:05.539Z,20.33
2022-11-29T20:25:37.535Z,20.50
2022-11-29T20:29:10.503Z,20.70
2022-11-29T20:32:42.847Z,20.83
2022-11-29T20:37:05.725Z,21.27
2022-11-29T20:41:02.452Z,21.40
2022-11-29T20:44:40.410Z,20.95
2022-11-29T20:48:19.713Z,21.80
2022-11-29T20:52:02.371Z,21.70
2022-11-29T20:55:37.856Z,21.38
2022-11-29T20:59:09.759Z,21.95
2022-11-29T21:02:41.782Z,20.52
2022-11-29T21:06:13.647Z,19.93
2022-11-29T21:09:45.776Z,21.90
2022-11-29T21:13:20.030Z,21.08
2022-11-29T21:16:52.111Z,20.40
2022-11-29T21:20:26.450Z,21.77
2022-11-29T21:24:07.661Z,19.77
2022-11-29T21:27:39.735Z,21.57
2022-11-29T21:31:13.013Z,20.05
2022-11-29T21:34:45.160Z,22.45
2022-11-29T21:38:22.174Z,20.45
2022-11-29T21:41:53.913Z,22.60
2022-11-29T21:45:26.230Z,20.15
2022-11-29T21:48:57.959Z,20.95
2022-11-29T21:52:29.775Z,22.03
2022-11-29T21:56:04.313Z,20.52
2022-11-29T21:59:36.606Z,22.10
2022-11-29T22:03:08.174Z,22.13
2022-11-29T22:06:40.229Z,22.58
2022-11-29T22:10:13.465Z,24.35
2022-11-29T22:14:04.154Z,19.83
2022-11-29T22:17:35.734Z,21.13
2022-11-29T22:21:45.979Z,20.35
2022-11-29T22:25:17.660Z,20.85
2022-11-29T22:28:49.973Z,18.80
2022-11-29T22:32:22.862Z,23.65
2022-11-29T22:35:54.677Z,19.65
2022-11-29T22:39:26.949Z,21.27
2022-11-29T22:42:58.813Z,21.60
2022-11-29T22:46:30.474Z,21.48
2022-11-29T22:50:02.654Z,19.98
2022-11-29T22:53:35.932Z,22.43
2022-11-29T22:57:07.928Z,22.67
2022-11-29T23:00:44.033Z,19.90
2022-11-29T23:04:16.122Z,21.73
2022-11-29T23:07:47.704Z,21.98
2022-11-29T23:11:23.128Z,20.63
2022-11-29T23:14:56.764Z,20.27
2022-11-29T23:18:29.193Z,21.90
2022-11-29T23:22:00.958Z,22.23
2022-11-29T23:25:32.890Z,21.15
2022-11-29T23:29:06.335Z,21.83
2022-11-29T23:32:38.260Z,21.90
2022-11-29T23:36:10.980Z,19.65
2022-11-29T23:39:42.947Z,20.37
2022-11-29T23:43:14.622Z,20.63
2022-11-29T23:46:46.516Z,20.20
2022-11-29T23:50:18.216Z,21.60
2022-11-29T23:53:54.621Z,20.52
2022-11-29T23:57:26.243Z,22.17
